sensor_id;sensor_type;location;lat;lon;timestamp;temperature;humidity
23681;DHT22;62915;50.832;4.462;2023-04-09T00:01:15;9.50;99.90
23681;DHT22;62915;50.832;4.462;2023-04-09T00:03:41;9.50;99.90
23681;DHT22;62915;50.832;4.462;2023-04-09T00:06:07;9.40;99.90
23681;DHT22;62915;50.832;4.462;2023-04-09T00:08:32;9.50;99.90
23681;DHT22;62915;50.832;4.462;2023-04-09T00:10:58;9.50;99.90
23681;DHT22;62915;50.832;4.462;2023-04-09T00:13:25;9.40;99.90
23681;DHT22;62915;50.832;4.462;2023-04-09T00:15:50;9.40;99.90
23681;DHT22;62915;50.832;4.462;2023-04-09T00:18:16;9.30;99.90
23681;DHT22;62915;50.832;4.462;2023-04-09T00:20:42;9.30;99.90
23681;DHT22;62915;50.832;4.462;2023-04-09T00:23:08;9.30;99.90
23681;DHT22;62915;50.832;4.462;2023-04-09T00:25:34;9.30;99.90
23681;DHT22;62915;50.832;4.462;2023-04-09T00:28:02;9.30;99.90
23681;DHT22;62915;50.832;4.462;2023-04-09T00:30:28;9.30;99.90
23681;DHT22;62915;50.832;4.462;2023-04-09T00:32:54;9.20;99.90
23681;DHT22;62915;50.832;4.462;2023-04-09T00:35:20;9.20;99.90
23681;DHT22;62915;50.832;4.462;2023-04-09T00:37:46;9.20;99.90
23681;DHT22;62915;50.832;4.462;2023-04-09T00:40:12;9.20;99.90
23681;DHT22;62915;50.832;4.462;2023-04-09T00:42:38;9.10;99.90
23681;DHT22;62915;50.832;4.462;2023-04-09T00:45:05;9.10;99.90
23681;DHT22;62915;50.832;4.462;2023-04-09T00:47:31;9.00;99.90
23681;DHT22;62915;50.832;4.462;2023-04-09T00:49:57;9.10;99.90
23681;DHT22;62915;50.832;4.462;2023-04-09T00:52:23;9.10;99.90
23681;DHT22;62915;50.832;4.462;2023-04-09T00:54:50;9.10;99.90
23681;DHT22;62915;50.832;4.462;2023-04-09T00:57:16;9.00;99.90
23681;DHT22;62915;50.832;4.462;2023-04-09T00:59:45;9.00;99.90
23681;DHT22;62915;50.832;4.462;2023-04-09T01:02:11;9.00;99.90
23681;DHT22;62915;50.832;4.462;2023-04-09T01:04:39;9.00;99.90
23681;DHT22;62915;50.832;4.462;2023-04-09T01:09:41;8.90;99.90
23681;DHT22;62915;50.832;4.462;2023-04-09T01:12:17;9.00;99.90
23681;DHT22;62915;50.832;4.462;2023-04-09T01:17:23;9.10;99.90
23681;DHT22;62915;50.832;4.462;2023-04-09T01:20:17;8.90;99.90
23681;DHT22;62915;50.832;4.462;2023-04-09T01:23:18;9.00;99.90
23681;DHT22;62915;50.832;4.462;2023-04-09T01:28:35;9.00;99.90
23681;DHT22;62915;50.832;4.462;2023-04-09T01:31:12;9.00;99.90
23681;DHT22;62915;50.832;4.462;2023-04-09T01:33:40;9.00;99.90
23681;DHT22;62915;50.832;4.462;2023-04-09T01:36:06;8.90;99.90
23681;DHT22;62915;50.832;4.462;2023-04-09T01:38:34;9.00;99.90
23681;DHT22;62915;50.832;4.462;2023-04-09T01:41:02;9.00;99.90
23681;DHT22;62915;50.832;4.462;2023-04-09T01:43:29;9.00;99.90
23681;DHT22;62915;50.832;4.462;2023-04-09T01:45:55;9.00;99.90
23681;DHT22;62915;50.832;4.462;2023-04-09T01:48:22;9.00;99.90
23681;DHT22;62915;50.832;4.462;2023-04-09T01:50:48;9.00;99.90
23681;DHT22;62915;50.832;4.462;2023-04-09T01:53:15;9.00;99.90
23681;DHT22;62915;50.832;4.462;2023-04-09T01:55:41;9.00;99.90
23681;DHT22;62915;50.832;4.462;2023-04-09T01:58:06;8.90;99.90
23681;DHT22;62915;50.832;4.462;2023-04-09T02:00:39;9.00;99.90
23681;DHT22;62915;50.832;4.462;2023-04-09T02:03:10;8.90;99.90
23681;DHT22;62915;50.832;4.462;2023-04-09T02:05:48;8.90;99.90
23681;DHT22;62915;50.832;4.462;2023-04-09T02:08:20;8.90;99.90
23681;DHT22;62915;50.832;4.462;2023-04-09T02:10:50;8.90;99.90
23681;DHT22;62915;50.832;4.462;2023-04-09T02:13:19;8.80;99.90
23681;DHT22;62915;50.832;4.462;2023-04-09T02:15:46;8.80;99.90
23681;DHT22;62915;50.832;4.462;2023-04-09T02:18:27;8.70;99.90
23681;DHT22;62915;50.832;4.462;2023-04-09T02:20:57;8.80;99.90
23681;DHT22;62915;50.832;4.462;2023-04-09T02:23:24;8.70;99.90
23681;DHT22;62915;50.832;4.462;2023-04-09T02:25:50;8.70;99.90
23681;DHT22;62915;50.832;4.462;2023-04-09T02:28:17;8.60;99.90
23681;DHT22;62915;50.832;4.462;2023-04-09T02:30:43;8.50;99.90
23681;DHT22;62915;50.832;4.462;2023-04-09T02:33:09;8.60;99.90
23681;DHT22;62915;50.832;4.462;2023-04-09T02:35:35;8.60;99.90
23681;DHT22;62915;50.832;4.462;2023-04-09T02:38:02;8.50;99.90
23681;DHT22;62915;50.832;4.462;2023-04-09T02:40:27;8.50;99.90
23681;DHT22;62915;50.832;4.462;2023-04-09T02:42:53;8.50;99.90
23681;DHT22;62915;50.832;4.462;2023-04-09T02:45:19;8.50;99.90
23681;DHT22;62915;50.832;4.462;2023-04-09T02:47:45;8.50;99.90
23681;DHT22;62915;50.832;4.462;2023-04-09T02:50:11;8.50;99.90
23681;DHT22;62915;50.832;4.462;2023-04-09T02:52:36;8.50;99.90
23681;DHT22;62915;50.832;4.462;2023-04-09T02:55:03;8.50;99.90
23681;DHT22;62915;50.832;4.462;2023-04-09T02:57:29;8.50;99.90
23681;DHT22;62915;50.832;4.462;2023-04-09T02:59:55;8.50;99.90
23681;DHT22;62915;50.832;4.462;2023-04-09T03:02:20;8.40;99.90
23681;DHT22;62915;50.832;4.462;2023-04-09T03:04:46;8.30;99.90
23681;DHT22;62915;50.832;4.462;2023-04-09T03:07:12;8.40;99.90
23681;DHT22;62915;50.832;4.462;2023-04-09T03:09:37;8.40;99.90
23681;DHT22;62915;50.832;4.462;2023-04-09T03:12:03;8.40;99.90
23681;DHT22;62915;50.832;4.462;2023-04-09T03:14:29;8.40;99.90
23681;DHT22;62915;50.832;4.462;2023-04-09T03:16:55;8.40;99.90
23681;DHT22;62915;50.832;4.462;2023-04-09T03:19:20;8.20;99.90
23681;DHT22;62915;50.832;4.462;2023-04-09T03:21:46;8.00;99.90
23681;DHT22;62915;50.832;4.462;2023-04-09T03:24:14;8.20;99.90
23681;DHT22;62915;50.832;4.462;2023-04-09T03:26:40;8.20;99.90
23681;DHT22;62915;50.832;4.462;2023-04-09T03:29:06;8.20;99.90
23681;DHT22;62915;50.832;4.462;2023-04-09T03:31:32;8.20;99.90
23681;DHT22;62915;50.832;4.462;2023-04-09T03:33:58;8.20;99.90
23681;DHT22;62915;50.832;4.462;2023-04-09T03:36:24;8.20;99.90
23681;DHT22;62915;50.832;4.462;2023-04-09T03:38:52;8.10;99.90
23681;DHT22;62915;50.832;4.462;2023-04-09T03:41:18;8.10;99.90
23681;DHT22;62915;50.832;4.462;2023-04-09T03:43:43;8.10;99.90
23681;DHT22;62915;50.832;4.462;2023-04-09T03:46:13;8.10;99.90
23681;DHT22;62915;50.832;4.462;2023-04-09T03:48:39;8.10;99.90
23681;DHT22;62915;50.832;4.462;2023-04-09T03:51:06;8.10;99.90
23681;DHT22;62915;50.832;4.462;2023-04-09T03:53:31;8.10;99.90
23681;DHT22;62915;50.832;4.462;2023-04-09T03:55:57;8.20;99.90
23681;DHT22;62915;50.832;4.462;2023-04-09T03:58:23;8.20;99.90
23681;DHT22;62915;50.832;4.462;2023-04-09T04:00:49;8.20;99.90
23681;DHT22;62915;50.832;4.462;2023-04-09T04:03:15;8.30;99.90
23681;DHT22;62915;50.832;4.462;2023-04-09T04:05:41;8.20;99.90
23681;DHT22;62915;50.832;4.462;2023-04-09T04:08:07;8.20;99.90
23681;DHT22;62915;50.832;4.462;2023-04-09T04:10:33;8.20;99.90
23681;DHT22;62915;50.832;4.462;2023-04-09T04:12:59;8.20;99.90
23681;DHT22;62915;50.832;4.462;2023-04-09T04:15:27;8.00;99.90
23681;DHT22;62915;50.832;4.462;2023-04-09T04:17:53;8.00;99.90
23681;DHT22;62915;50.832;4.462;2023-04-09T04:20:19;8.10;99.90
23681;DHT22;62915;50.832;4.462;2023-04-09T04:22:45;8.20;99.90
23681;DHT22;62915;50.832;4.462;2023-04-09T04:25:11;8.20;99.90
23681;DHT22;62915;50.832;4.462;2023-04-09T04:27:40;8.20;99.90
23681;DHT22;62915;50.832;4.462;2023-04-09T04:30:06;8.10;99.90
23681;DHT22;62915;50.832;4.462;2023-04-09T04:32:32;8.20;99.90
23681;DHT22;62915;50.832;4.462;2023-04-09T04:34:57;8.20;99.90
23681;DHT22;62915;50.832;4.462;2023-04-09T04:37:23;8.30;99.90
23681;DHT22;62915;50.832;4.462;2023-04-09T04:39:50;8.30;99.90
23681;DHT22;62915;50.832;4.462;2023-04-09T04:42:17;8.30;99.90
23681;DHT22;62915;50.832;4.462;2023-04-09T04:44:43;8.30;99.90
23681;DHT22;62915;50.832;4.462;2023-04-09T04:47:09;8.40;99.90
23681;DHT22;62915;50.832;4.462;2023-04-09T04:49:35;8.40;99.90
23681;DHT22;62915;50.832;4.462;2023-04-09T04:52:00;8.40;99.90
23681;DHT22;62915;50.832;4.462;2023-04-09T04:54:26;8.20;99.90
23681;DHT22;62915;50.832;4.462;2023-04-09T04:56:52;8.20;99.90
23681;DHT22;62915;50.832;4.462;2023-04-09T04:59:17;8.20;99.90
23681;DHT22;62915;50.832;4.462;2023-04-09T05:01:43;8.20;99.90
23681;DHT22;62915;50.832;4.462;2023-04-09T05:04:09;8.30;99.90
23681;DHT22;62915;50.832;4.462;2023-04-09T05:06:35;8.30;99.90
23681;DHT22;62915;50.832;4.462;2023-04-09T05:09:00;8.20;99.90
23681;DHT22;62915;50.832;4.462;2023-04-09T05:11:27;8.20;99.90
23681;DHT22;62915;50.832;4.462;2023-04-09T05:13:52;8.20;99.90
23681;DHT22;62915;50.832;4.462;2023-04-09T05:16:19;8.20;99.90
23681;DHT22;62915;50.832;4.462;2023-04-09T05:18:46;8.20;99.90
23681;DHT22;62915;50.832;4.462;2023-04-09T05:21:12;8.20;99.90
23681;DHT22;62915;50.832;4.462;2023-04-09T05:23:37;8.10;99.90
23681;DHT22;62915;50.832;4.462;2023-04-09T05:26:03;8.10;99.90
23681;DHT22;62915;50.832;4.462;2023-04-09T05:28:29;8.00;99.90
23681;DHT22;62915;50.832;4.462;2023-04-09T05:30:55;8.00;99.90
23681;DHT22;62915;50.832;4.462;2023-04-09T05:33:20;8.00;99.90
23681;DHT22;62915;50.832;4.462;2023-04-09T05:35:46;8.00;99.90
23681;DHT22;62915;50.832;4.462;2023-04-09T05:38:12;8.00;99.90
23681;DHT22;62915;50.832;4.462;2023-04-09T05:40:38;8.00;99.90
23681;DHT22;62915;50.832;4.462;2023-04-09T05:43:04;8.00;99.90
23681;DHT22;62915;50.832;4.462;2023-04-09T05:45:30;8.00;99.90
23681;DHT22;62915;50.832;4.462;2023-04-09T05:47:57;8.00;99.90
23681;DHT22;62915;50.832;4.462;2023-04-09T05:50:24;8.00;99.90
23681;DHT22;62915;50.832;4.462;2023-04-09T05:52:50;8.10;99.90
23681;DHT22;62915;50.832;4.462;2023-04-09T05:55:16;8.00;99.90
23681;DHT22;62915;50.832;4.462;2023-04-09T05:57:41;8.00;99.90
23681;DHT22;62915;50.832;4.462;2023-04-09T06:00:09;8.00;99.90
23681;DHT22;62915;50.832;4.462;2023-04-09T06:02:35;8.10;99.90
23681;DHT22;62915;50.832;4.462;2023-04-09T06:05:00;8.10;99.90
23681;DHT22;62915;50.832;4.462;2023-04-09T06:07:27;8.10;99.90
23681;DHT22;62915;50.832;4.462;2023-04-09T06:09:54;8.20;99.90
23681;DHT22;62915;50.832;4.462;2023-04-09T06:12:20;8.20;99.90
23681;DHT22;62915;50.832;4.462;2023-04-09T06:14:47;8.20;99.90
23681;DHT22;62915;50.832;4.462;2023-04-09T06:17:13;8.40;99.90
23681;DHT22;62915;50.832;4.462;2023-04-09T06:19:39;8.40;99.90
23681;DHT22;62915;50.832;4.462;2023-04-09T06:22:05;8.60;99.90
23681;DHT22;62915;50.832;4.462;2023-04-09T06:24:31;8.60;99.90
23681;DHT22;62915;50.832;4.462;2023-04-09T06:26:57;8.70;99.90
23681;DHT22;62915;50.832;4.462;2023-04-09T06:29:23;8.80;99.90
23681;DHT22;62915;50.832;4.462;2023-04-09T06:31:49;8.90;99.90
23681;DHT22;62915;50.832;4.462;2023-04-09T06:34:15;8.70;99.90
23681;DHT22;62915;50.832;4.462;2023-04-09T06:36:40;8.80;99.90
23681;DHT22;62915;50.832;4.462;2023-04-09T06:39:08;8.90;99.90
23681;DHT22;62915;50.832;4.462;2023-04-09T06:41:35;9.10;99.90
23681;DHT22;62915;50.832;4.462;2023-04-09T06:44:01;9.10;99.90
23681;DHT22;62915;50.832;4.462;2023-04-09T06:46:27;9.10;99.90
23681;DHT22;62915;50.832;4.462;2023-04-09T06:48:53;9.20;99.90
23681;DHT22;62915;50.832;4.462;2023-04-09T06:51:19;9.30;99.90
23681;DHT22;62915;50.832;4.462;2023-04-09T06:53:44;9.10;99.90
23681;DHT22;62915;50.832;4.462;2023-04-09T06:56:12;9.20;99.90
23681;DHT22;62915;50.832;4.462;2023-04-09T06:58:38;9.40;99.90
23681;DHT22;62915;50.832;4.462;2023-04-09T07:01:04;9.50;99.90
23681;DHT22;62915;50.832;4.462;2023-04-09T07:03:30;9.60;99.90
23681;DHT22;62915;50.832;4.462;2023-04-09T07:05:56;9.70;99.90
23681;DHT22;62915;50.832;4.462;2023-04-09T07:08:22;10.00;99.90
23681;DHT22;62915;50.832;4.462;2023-04-09T07:10:48;10.00;99.90
23681;DHT22;62915;50.832;4.462;2023-04-09T07:13:14;10.10;99.90
23681;DHT22;62915;50.832;4.462;2023-04-09T07:15:39;10.10;99.90
23681;DHT22;62915;50.832;4.462;2023-04-09T07:18:05;10.30;99.90
23681;DHT22;62915;50.832;4.462;2023-04-09T07:20:31;10.40;99.90
23681;DHT22;62915;50.832;4.462;2023-04-09T07:22:58;10.40;99.90
23681;DHT22;62915;50.832;4.462;2023-04-09T07:25:24;10.50;99.90
23681;DHT22;62915;50.832;4.462;2023-04-09T07:27:50;10.70;99.90
23681;DHT22;62915;50.832;4.462;2023-04-09T07:30:16;10.70;99.90
23681;DHT22;62915;50.832;4.462;2023-04-09T07:32:42;10.80;99.90
23681;DHT22;62915;50.832;4.462;2023-04-09T07:35:08;10.80;99.90
23681;DHT22;62915;50.832;4.462;2023-04-09T07:37:34;11.00;99.90
23681;DHT22;62915;50.832;4.462;2023-04-09T07:40:00;11.00;99.90
23681;DHT22;62915;50.832;4.462;2023-04-09T07:42:28;10.90;99.90
23681;DHT22;62915;50.832;4.462;2023-04-09T07:44:54;11.10;99.90
23681;DHT22;62915;50.832;4.462;2023-04-09T07:47:21;11.20;99.90
23681;DHT22;62915;50.832;4.462;2023-04-09T07:49:47;11.20;99.90
23681;DHT22;62915;50.832;4.462;2023-04-09T07:52:13;11.30;99.90
23681;DHT22;62915;50.832;4.462;2023-04-09T07:54:39;11.30;99.90
23681;DHT22;62915;50.832;4.462;2023-04-09T07:57:05;11.40;99.90
23681;DHT22;62915;50.832;4.462;2023-04-09T07:59:31;11.50;99.90
23681;DHT22;62915;50.832;4.462;2023-04-09T08:01:57;11.60;99.90
23681;DHT22;62915;50.832;4.462;2023-04-09T08:04:23;11.80;99.90
23681;DHT22;62915;50.832;4.462;2023-04-09T08:06:49;11.70;99.90
23681;DHT22;62915;50.832;4.462;2023-04-09T08:09:16;11.90;99.90
23681;DHT22;62915;50.832;4.462;2023-04-09T08:11:43;11.90;99.90
23681;DHT22;62915;50.832;4.462;2023-04-09T08:14:10;12.20;99.90
23681;DHT22;62915;50.832;4.462;2023-04-09T08:16:44;12.40;99.90
23681;DHT22;62915;50.832;4.462;2023-04-09T08:19:10;12.50;99.90
23681;DHT22;62915;50.832;4.462;2023-04-09T08:21:37;12.60;99.90
23681;DHT22;62915;50.832;4.462;2023-04-09T08:24:04;12.80;99.90
23681;DHT22;62915;50.832;4.462;2023-04-09T08:26:31;13.00;99.90
23681;DHT22;62915;50.832;4.462;2023-04-09T08:28:57;13.00;99.90
23681;DHT22;62915;50.832;4.462;2023-04-09T08:31:23;13.20;99.90
23681;DHT22;62915;50.832;4.462;2023-04-09T08:33:49;13.40;99.90
23681;DHT22;62915;50.832;4.462;2023-04-09T08:36:16;13.80;99.90
23681;DHT22;62915;50.832;4.462;2023-04-09T08:38:42;14.00;99.90
23681;DHT22;62915;50.832;4.462;2023-04-09T08:41:18;14.10;99.90
23681;DHT22;62915;50.832;4.462;2023-04-09T08:43:46;14.40;99.90
23681;DHT22;62915;50.832;4.462;2023-04-09T08:46:15;14.40;99.90
23681;DHT22;62915;50.832;4.462;2023-04-09T08:48:45;14.40;99.90
23681;DHT22;62915;50.832;4.462;2023-04-09T08:51:19;14.00;99.90
23681;DHT22;62915;50.832;4.462;2023-04-09T08:53:58;13.60;99.90
23681;DHT22;62915;50.832;4.462;2023-04-09T08:56:24;13.60;99.90
23681;DHT22;62915;50.832;4.462;2023-04-09T08:58:54;13.70;99.90
23681;DHT22;62915;50.832;4.462;2023-04-09T09:01:21;13.90;99.90
23681;DHT22;62915;50.832;4.462;2023-04-09T09:04:02;14.20;99.90
23681;DHT22;62915;50.832;4.462;2023-04-09T09:06:33;14.50;99.90
23681;DHT22;62915;50.832;4.462;2023-04-09T09:09:08;14.50;99.90
23681;DHT22;62915;50.832;4.462;2023-04-09T09:11:36;14.70;99.90
23681;DHT22;62915;50.832;4.462;2023-04-09T09:14:08;14.70;99.90
23681;DHT22;62915;50.832;4.462;2023-04-09T09:16:34;14.50;99.90
23681;DHT22;62915;50.832;4.462;2023-04-09T09:19:04;14.70;99.90
23681;DHT22;62915;50.832;4.462;2023-04-09T09:21:31;14.80;99.90
23681;DHT22;62915;50.832;4.462;2023-04-09T09:23:57;14.90;99.90
23681;DHT22;62915;50.832;4.462;2023-04-09T09:26:27;15.20;99.90
23681;DHT22;62915;50.832;4.462;2023-04-09T09:28:54;15.30;99.90
23681;DHT22;62915;50.832;4.462;2023-04-09T09:31:21;15.50;99.90
23681;DHT22;62915;50.832;4.462;2023-04-09T09:33:48;15.80;99.90
23681;DHT22;62915;50.832;4.462;2023-04-09T09:36:14;15.90;99.90
23681;DHT22;62915;50.832;4.462;2023-04-09T09:38:51;16.10;99.90
23681;DHT22;62915;50.832;4.462;2023-04-09T09:41:18;16.20;99.90
23681;DHT22;62915;50.832;4.462;2023-04-09T09:43:44;16.50;99.90
23681;DHT22;62915;50.832;4.462;2023-04-09T09:46:10;16.90;99.90
23681;DHT22;62915;50.832;4.462;2023-04-09T09:48:37;17.30;99.90
23681;DHT22;62915;50.832;4.462;2023-04-09T09:51:08;17.50;99.90
23681;DHT22;62915;50.832;4.462;2023-04-09T09:53:39;17.60;99.90
23681;DHT22;62915;50.832;4.462;2023-04-09T09:56:05;17.60;99.90
23681;DHT22;62915;50.832;4.462;2023-04-09T09:58:47;17.10;99.90
23681;DHT22;62915;50.832;4.462;2023-04-09T10:01:16;17.10;99.90
23681;DHT22;62915;50.832;4.462;2023-04-09T10:03:45;17.20;99.90
23681;DHT22;62915;50.832;4.462;2023-04-09T10:06:12;17.50;99.90
23681;DHT22;62915;50.832;4.462;2023-04-09T10:08:39;17.70;99.90
23681;DHT22;62915;50.832;4.462;2023-04-09T10:11:06;17.70;99.90
23681;DHT22;62915;50.832;4.462;2023-04-09T10:13:42;17.60;99.90
23681;DHT22;62915;50.832;4.462;2023-04-09T10:16:10;17.80;99.90
23681;DHT22;62915;50.832;4.462;2023-04-09T10:18:37;18.00;99.90
23681;DHT22;62915;50.832;4.462;2023-04-09T10:21:13;17.90;99.90
23681;DHT22;62915;50.832;4.462;2023-04-09T10:23:43;18.10;99.90
23681;DHT22;62915;50.832;4.462;2023-04-09T10:26:09;18.00;99.90
23681;DHT22;62915;50.832;4.462;2023-04-09T10:28:36;17.00;99.90
23681;DHT22;62915;50.832;4.462;2023-04-09T10:31:04;16.60;99.90
23681;DHT22;62915;50.832;4.462;2023-04-09T10:33:30;16.50;99.90
23681;DHT22;62915;50.832;4.462;2023-04-09T10:36:02;16.50;99.90
23681;DHT22;62915;50.832;4.462;2023-04-09T10:38:47;16.70;99.90
23681;DHT22;62915;50.832;4.462;2023-04-09T10:41:20;17.00;99.90
23681;DHT22;62915;50.832;4.462;2023-04-09T10:43:47;17.30;99.90
23681;DHT22;62915;50.832;4.462;2023-04-09T10:46:36;17.60;99.90
23681;DHT22;62915;50.832;4.462;2023-04-09T10:49:18;17.90;99.90
23681;DHT22;62915;50.832;4.462;2023-04-09T10:57:18;17.80;99.90
23681;DHT22;62915;50.832;4.462;2023-04-09T10:59:49;17.60;99.90
23681;DHT22;62915;50.832;4.462;2023-04-09T11:07:44;17.70;99.90
23681;DHT22;62915;50.832;4.462;2023-04-09T11:10:11;17.80;99.90
23681;DHT22;62915;50.832;4.462;2023-04-09T11:12:37;18.00;99.90
23681;DHT22;62915;50.832;4.462;2023-04-09T11:15:03;18.00;99.90
23681;DHT22;62915;50.832;4.462;2023-04-09T11:17:29;17.90;99.90
23681;DHT22;62915;50.832;4.462;2023-04-09T11:19:55;18.30;99.90
23681;DHT22;62915;50.832;4.462;2023-04-09T11:22:21;18.60;99.90
23681;DHT22;62915;50.832;4.462;2023-04-09T11:24:46;18.50;99.90
23681;DHT22;62915;50.832;4.462;2023-04-09T11:27:12;18.70;99.90
23681;DHT22;62915;50.832;4.462;2023-04-09T11:29:38;18.70;99.90
23681;DHT22;62915;50.832;4.462;2023-04-09T11:32:04;18.70;99.90
23681;DHT22;62915;50.832;4.462;2023-04-09T11:34:31;18.90;99.90
23681;DHT22;62915;50.832;4.462;2023-04-09T11:36:56;19.10;99.90
23681;DHT22;62915;50.832;4.462;2023-04-09T11:39:24;19.30;99.90
23681;DHT22;62915;50.832;4.462;2023-04-09T11:41:50;19.00;99.90
23681;DHT22;62915;50.832;4.462;2023-04-09T11:44:16;18.90;99.90
23681;DHT22;62915;50.832;4.462;2023-04-09T11:46:42;18.40;99.90
23681;DHT22;62915;50.832;4.462;2023-04-09T11:49:08;18.60;99.90
23681;DHT22;62915;50.832;4.462;2023-04-09T11:51:35;19.00;99.90
23681;DHT22;62915;50.832;4.462;2023-04-09T11:54:01;18.90;99.90
23681;DHT22;62915;50.832;4.462;2023-04-09T11:56:30;18.90;99.90
23681;DHT22;62915;50.832;4.462;2023-04-09T11:58:57;18.90;99.90
23681;DHT22;62915;50.832;4.462;2023-04-09T12:01:23;18.50;99.90
23681;DHT22;62915;50.832;4.462;2023-04-09T12:03:53;18.20;99.90
23681;DHT22;62915;50.832;4.462;2023-04-09T12:06:22;18.60;99.90
23681;DHT22;62915;50.832;4.462;2023-04-09T12:08:53;19.10;99.90
23681;DHT22;62915;50.832;4.462;2023-04-09T12:11:20;19.20;99.90
23681;DHT22;62915;50.832;4.462;2023-04-09T12:13:58;19.60;99.90
23681;DHT22;62915;50.832;4.462;2023-04-09T12:16:24;19.90;99.90
23681;DHT22;62915;50.832;4.462;2023-04-09T12:18:50;20.10;99.90
23681;DHT22;62915;50.832;4.462;2023-04-09T12:21:23;20.00;99.90
23681;DHT22;62915;50.832;4.462;2023-04-09T12:23:49;20.30;99.90
23681;DHT22;62915;50.832;4.462;2023-04-09T12:26:14;20.50;99.90
23681;DHT22;62915;50.832;4.462;2023-04-09T12:28:40;20.60;99.90
23681;DHT22;62915;50.832;4.462;2023-04-09T12:31:09;21.00;99.90
23681;DHT22;62915;50.832;4.462;2023-04-09T12:33:35;20.90;99.90
23681;DHT22;62915;50.832;4.462;2023-04-09T12:36:03;21.20;99.90
23681;DHT22;62915;50.832;4.462;2023-04-09T12:38:29;21.40;99.80
23681;DHT22;62915;50.832;4.462;2023-04-09T12:40:54;21.30;99.90
23681;DHT22;62915;50.832;4.462;2023-04-09T12:43:20;21.40;99.30
23681;DHT22;62915;50.832;4.462;2023-04-09T12:45:47;21.40;98.80
23681;DHT22;62915;50.832;4.462;2023-04-09T12:48:12;21.80;97.40
23681;DHT22;62915;50.832;4.462;2023-04-09T12:50:38;22.10;96.50
23681;DHT22;62915;50.832;4.462;2023-04-09T12:53:04;22.10;96.70
23681;DHT22;62915;50.832;4.462;2023-04-09T12:55:29;22.10;94.20
23681;DHT22;62915;50.832;4.462;2023-04-09T12:57:55;22.10;93.40
23681;DHT22;62915;50.832;4.462;2023-04-09T13:00:21;21.70;94.00
23681;DHT22;62915;50.832;4.462;2023-04-09T13:02:46;21.80;93.80
23681;DHT22;62915;50.832;4.462;2023-04-09T13:05:12;21.60;94.80
23681;DHT22;62915;50.832;4.462;2023-04-09T13:07:38;21.40;95.80
23681;DHT22;62915;50.832;4.462;2023-04-09T13:10:04;21.50;97.50
23681;DHT22;62915;50.832;4.462;2023-04-09T13:12:30;21.70;97.30
23681;DHT22;62915;50.832;4.462;2023-04-09T13:14:56;22.00;97.20
23681;DHT22;62915;50.832;4.462;2023-04-09T13:17:21;22.00;96.80
23681;DHT22;62915;50.832;4.462;2023-04-09T13:19:48;21.70;96.20
23681;DHT22;62915;50.832;4.462;2023-04-09T13:22:13;21.60;98.80
23681;DHT22;62915;50.832;4.462;2023-04-09T13:24:39;21.60;98.10
23681;DHT22;62915;50.832;4.462;2023-04-09T13:27:06;21.30;97.30
23681;DHT22;62915;50.832;4.462;2023-04-09T13:29:34;21.20;94.40
23681;DHT22;62915;50.832;4.462;2023-04-09T13:32:00;20.80;93.10
23681;DHT22;62915;50.832;4.462;2023-04-09T13:34:33;20.70;93.70
23681;DHT22;62915;50.832;4.462;2023-04-09T13:36:59;20.00;96.00
23681;DHT22;62915;50.832;4.462;2023-04-09T13:39:25;19.70;98.10
23681;DHT22;62915;50.832;4.462;2023-04-09T13:41:51;19.70;96.80
23681;DHT22;62915;50.832;4.462;2023-04-09T13:44:19;19.70;97.60
23681;DHT22;62915;50.832;4.462;2023-04-09T13:46:45;19.70;97.40
23681;DHT22;62915;50.832;4.462;2023-04-09T13:49:11;19.60;95.50
23681;DHT22;62915;50.832;4.462;2023-04-09T13:51:36;19.50;97.40
23681;DHT22;62915;50.832;4.462;2023-04-09T13:54:02;19.20;98.90
23681;DHT22;62915;50.832;4.462;2023-04-09T13:56:29;19.00;98.90
23681;DHT22;62915;50.832;4.462;2023-04-09T13:58:55;19.10;99.80
23681;DHT22;62915;50.832;4.462;2023-04-09T14:01:21;19.20;99.90
23681;DHT22;62915;50.832;4.462;2023-04-09T14:03:46;19.30;99.90
23681;DHT22;62915;50.832;4.462;2023-04-09T14:06:12;19.60;97.90
23681;DHT22;62915;50.832;4.462;2023-04-09T14:08:38;19.80;98.20
23681;DHT22;62915;50.832;4.462;2023-04-09T14:11:03;19.90;99.90
23681;DHT22;62915;50.832;4.462;2023-04-09T14:13:29;19.70;98.50
23681;DHT22;62915;50.832;4.462;2023-04-09T14:15:55;19.30;97.90
23681;DHT22;62915;50.832;4.462;2023-04-09T14:18:21;18.80;99.80
23681;DHT22;62915;50.832;4.462;2023-04-09T14:20:46;18.80;99.90
23681;DHT22;62915;50.832;4.462;2023-04-09T14:23:12;19.00;99.10
23681;DHT22;62915;50.832;4.462;2023-04-09T14:25:38;19.00;99.40
23681;DHT22;62915;50.832;4.462;2023-04-09T14:28:03;19.00;99.90
23681;DHT22;62915;50.832;4.462;2023-04-09T14:30:29;18.70;99.90
23681;DHT22;62915;50.832;4.462;2023-04-09T14:32:55;18.80;99.90
23681;DHT22;62915;50.832;4.462;2023-04-09T14:35:20;18.80;99.90
23681;DHT22;62915;50.832;4.462;2023-04-09T14:37:46;19.00;98.10
23681;DHT22;62915;50.832;4.462;2023-04-09T14:40:12;19.10;97.50
23681;DHT22;62915;50.832;4.462;2023-04-09T14:42:39;18.90;97.60
23681;DHT22;62915;50.832;4.462;2023-04-09T14:45:06;18.90;98.40
23681;DHT22;62915;50.832;4.462;2023-04-09T14:47:31;19.00;99.00
23681;DHT22;62915;50.832;4.462;2023-04-09T14:49:57;19.00;97.70
23681;DHT22;62915;50.832;4.462;2023-04-09T14:52:23;19.00;97.80
23681;DHT22;62915;50.832;4.462;2023-04-09T14:54:48;18.80;97.60
23681;DHT22;62915;50.832;4.462;2023-04-09T14:57:14;18.50;98.60
23681;DHT22;62915;50.832;4.462;2023-04-09T14:59:40;18.50;99.30
23681;DHT22;62915;50.832;4.462;2023-04-09T15:02:07;18.50;99.90
23681;DHT22;62915;50.832;4.462;2023-04-09T15:04:32;18.30;99.70
23681;DHT22;62915;50.832;4.462;2023-04-09T15:06:58;18.20;99.90
23681;DHT22;62915;50.832;4.462;2023-04-09T15:09:23;18.20;99.90
23681;DHT22;62915;50.832;4.462;2023-04-09T15:11:49;17.80;99.90
23681;DHT22;62915;50.832;4.462;2023-04-09T15:14:15;17.80;99.90
23681;DHT22;62915;50.832;4.462;2023-04-09T15:16:41;17.90;99.90
23681;DHT22;62915;50.832;4.462;2023-04-09T15:19:06;18.20;99.90
23681;DHT22;62915;50.832;4.462;2023-04-09T15:21:32;18.40;99.80
23681;DHT22;62915;50.832;4.462;2023-04-09T15:23:57;18.20;99.90
23681;DHT22;62915;50.832;4.462;2023-04-09T15:26:24;18.10;99.90
23681;DHT22;62915;50.832;4.462;2023-04-09T15:28:51;18.00;99.90
23681;DHT22;62915;50.832;4.462;2023-04-09T15:31:18;17.90;99.90
23681;DHT22;62915;50.832;4.462;2023-04-09T15:33:43;17.90;99.90
23681;DHT22;62915;50.832;4.462;2023-04-09T15:36:10;18.00;99.90
23681;DHT22;62915;50.832;4.462;2023-04-09T15:38:36;18.10;99.90
23681;DHT22;62915;50.832;4.462;2023-04-09T15:41:02;18.00;99.10
23681;DHT22;62915;50.832;4.462;2023-04-09T15:43:29;18.00;99.90
23681;DHT22;62915;50.832;4.462;2023-04-09T15:45:55;18.00;99.90
23681;DHT22;62915;50.832;4.462;2023-04-09T15:48:20;18.10;99.90
23681;DHT22;62915;50.832;4.462;2023-04-09T15:50:46;18.30;99.90
23681;DHT22;62915;50.832;4.462;2023-04-09T15:53:15;18.10;99.90
23681;DHT22;62915;50.832;4.462;2023-04-09T15:55:41;18.00;99.50